Time;durP1;ratioP1;P1;durP2;ratioP2;P2;SDS_P1;SDS_P2;PMS_P1;PMS_P2;Temp;Humidity;BMP_temperature;BMP_pressure;BME280_temperature;BME280_humidity;BME280_pressure;Samples;Min_cycle;Max_cycle;Signal;HPM_P1;HPM_P2
2021/11/14 00:02:13;;;;;;;192.95;94.53;;;;;;;;;;5034837;28;20083;-62
2021/11/14 00:04:42;;;;;;;178.95;91.65;;;;;;;;;;5034770;28;20052;-63
2021/11/14 00:07:08;;;;;;;168.80;89.97;;;;;;;;;;5034880;28;20810;-64
2021/11/14 00:09:35;;;;;;;161.65;87.45;;;;;;;;;;5035295;28;20052;-63
2021/11/14 00:12:10;;;;;;;166.00;87.90;;;;;;;;;;5014463;28;20052;-62
2021/11/14 00:14:37;;;;;;;172.65;90.53;;;;;;;;;;5034668;28;20129;-63
2021/11/14 00:17:03;;;;;;;181.98;97.30;;;;;;;;;;5034620;28;20037;-63
2021/11/14 00:19:29;;;;;;;183.38;92.97;;;;;;;;;;5034572;28;20025;-64
2021/11/14 00:21:56;;;;;;;150.95;83.95;;;;;;;;;;5035346;28;20040;-64
2021/11/14 00:24:22;;;;;;;158.32;87.15;;;;;;;;;;5034486;28;20111;-63
2021/11/14 00:26:48;;;;;;;164.20;86.38;;;;;;;;;;5016594;28;20026;-64
2021/11/14 00:29:14;;;;;;;162.98;86.82;;;;;;;;;;5034409;28;20039;-63
2021/11/14 00:31:41;;;;;;;159.05;88.40;;;;;;;;;;5034499;28;20022;-62
2021/11/14 00:34:08;;;;;;;164.50;87.25;;;;;;;;;;5016525;28;20494;-63
2021/11/14 00:36:41;;;;;;;165.85;90.75;;;;;;;;;;5033958;28;20029;-63
2021/11/14 00:39:09;;;;;;;183.00;99.88;;;;;;;;;;5013937;28;20026;-63
2021/11/14 00:41:35;;;;;;;176.20;98.43;;;;;;;;;;5034008;28;20545;-63
2021/11/14 00:44:02;;;;;;;181.02;100.53;;;;;;;;;;5016236;28;20041;-63
2021/11/14 00:46:28;;;;;;;190.70;102.15;;;;;;;;;;5034050;28;20475;-62
2021/11/14 00:49:01;;;;;;;204.90;106.45;;;;;;;;;;5033399;28;20026;-63
2021/11/14 00:51:29;;;;;;;200.32;105.43;;;;;;;;;;5017567;28;20375;-65
2021/11/14 00:54:02;;;;;;;188.23;101.90;;;;;;;;;;5017557;28;20053;-66
2021/11/14 00:56:28;;;;;;;194.63;102.30;;;;;;;;;;5035222;28;20037;-67
2021/11/14 00:58:55;;;;;;;201.05;107.70;;;;;;;;;;5035191;28;20401;-66
2021/11/14 01:01:22;;;;;;;186.23;102.78;;;;;;;;;;5035197;28;20029;-66
2021/11/14 01:03:48;;;;;;;184.82;101.50;;;;;;;;;;5035166;28;20059;-66
2021/11/14 01:06:15;;;;;;;178.27;96.80;;;;;;;;;;5035092;28;20025;-65
2021/11/14 01:08:41;;;;;;;171.93;93.88;;;;;;;;;;5017264;28;20454;-66
2021/11/14 01:11:13;;;;;;;169.70;92.68;;;;;;;;;;5016699;28;20474;-66
2021/11/14 01:13:40;;;;;;;165.07;91.07;;;;;;;;;;5034858;28;20026;-68
2021/11/14 01:16:08;;;;;;;170.95;93.53;;;;;;;;;;5034866;28;20026;-68
2021/11/14 01:18:35;;;;;;;148.63;84.28;;;;;;;;;;5035156;28;20021;-65
2021/11/14 01:21:02;;;;;;;143.57;81.18;;;;;;;;;;5016982;28;20036;-66
2021/11/14 01:23:28;;;;;;;153.50;83.72;;;;;;;;;;5034820;28;20045;-67
2021/11/14 01:25:55;;;;;;;150.45;83.80;;;;;;;;;;5034760;28;20033;-64
2021/11/14 01:28:22;;;;;;;160.20;86.75;;;;;;;;;;5034397;28;20112;-65
2021/11/14 01:30:50;;;;;;;156.23;88.18;;;;;;;;;;5034589;28;20032;-66
2021/11/14 01:33:17;;;;;;;150.75;89.18;;;;;;;;;;5034377;28;20031;-65
2021/11/14 01:35:44;;;;;;;164.52;88.90;;;;;;;;;;5034521;28;20029;-65
2021/11/14 01:38:10;;;;;;;158.50;90.13;;;;;;;;;;5016608;28;20029;-66
2021/11/14 01:40:42;;;;;;;158.80;89.65;;;;;;;;;;5016624;28;20496;-65
2021/11/14 01:43:09;;;;;;;171.45;92.95;;;;;;;;;;5034500;28;20026;-65
2021/11/14 01:45:36;;;;;;;167.15;88.45;;;;;;;;;;5034371;28;20060;-64
2021/11/14 01:48:03;;;;;;;155.25;88.13;;;;;;;;;;5016521;28;20041;-65
2021/11/14 01:50:30;;;;;;;141.07;79.65;;;;;;;;;;5016432;28;20079;-66
2021/11/14 01:52:56;;;;;;;147.63;83.88;;;;;;;;;;5034264;28;20533;-64
2021/11/14 01:55:26;;;;;;;142.30;82.18;;;;;;;;;;5034151;28;20022;-63
2021/11/14 01:57:53;;;;;;;147.00;80.15;;;;;;;;;;5034025;28;20087;-63
2021/11/14 02:00:25;;;;;;;147.10;83.20;;;;;;;;;;5033919;28;20017;-64
2021/11/14 02:02:51;;;;;;;145.85;79.10;;;;;;;;;;5034326;28;20046;-63
2021/11/14 02:05:22;;;;;;;140.35;77.30;;;;;;;;;;5033968;28;20088;-63
2021/11/14 02:07:49;;;;;;;136.70;78.20;;;;;;;;;;5034299;28;20413;-64
2021/11/14 02:10:16;;;;;;;129.73;75.97;;;;;;;;;;5015838;28;20022;-63
2021/11/14 02:12:43;;;;;;;130.65;75.95;;;;;;;;;;5033419;28;20132;-65
2021/11/14 02:15:09;;;;;;;130.40;76.53;;;;;;;;;;5016078;28;20381;-64
2021/11/14 02:17:36;;;;;;;128.50;76.57;;;;;;;;;;5033686;28;20057;-64
2021/11/14 02:20:04;;;;;;;137.55;78.43;;;;;;;;;;5033676;28;20468;-63
2021/11/14 02:22:30;;;;;;;138.32;76.18;;;;;;;;;;5015908;28;20108;-64
2021/11/14 02:24:56;;;;;;;129.60;74.80;;;;;;;;;;5033865;28;20029;-64
2021/11/14 02:27:22;;;;;;;141.18;79.70;;;;;;;;;;5033597;28;20029;-63
2021/11/14 02:29:49;;;;;;;133.00;76.10;;;;;;;;;;5033531;28;20056;-64
2021/11/14 02:32:15;;;;;;;131.82;78.40;;;;;;;;;;5015767;28;20457;-64
2021/11/14 02:34:41;;;;;;;135.85;77.43;;;;;;;;;;5033158;28;20429;-63
2021/11/14 02:37:07;;;;;;;134.65;75.40;;;;;;;;;;5015601;28;20120;-62
2021/11/14 02:39:34;;;;;;;134.45;77.93;;;;;;;;;;5033636;28;20458;-63
2021/11/14 02:42:01;;;;;;;128.45;75.93;;;;;;;;;;5015585;28;20553;-64
2021/11/14 02:44:28;;;;;;;126.68;78.40;;;;;;;;;;5033268;28;20022;-64
2021/11/14 02:46:54;;;;;;;137.07;76.40;;;;;;;;;;5033275;28;20029;-65
2021/11/14 02:49:21;;;;;;;125.70;72.60;;;;;;;;;;5033233;28;20457;-64
2021/11/14 02:51:47;;;;;;;131.20;73.43;;;;;;;;;;5015437;28;20370;-64
2021/11/14 02:54:13;;;;;;;115.20;69.53;;;;;;;;;;5015491;28;20437;-64
2021/11/14 02:56:40;;;;;;;126.10;71.95;;;;;;;;;;5033072;28;20034;-64
2021/11/14 02:59:06;;;;;;;123.88;70.72;;;;;;;;;;5033164;28;20026;-64
2021/11/14 03:01:44;;;;;;;130.07;74.88;;;;;;;;;;5033062;28;20076;-63
2021/11/14 03:04:17;;;;;;;133.45;77.80;;;;;;;;;;5033096;28;20551;-64
2021/11/14 03:06:44;;;;;;;130.38;73.20;;;;;;;;;;5033110;28;20355;-66
2021/11/14 03:09:11;;;;;;;132.70;76.07;;;;;;;;;;5033325;28;20064;-64
2021/11/14 03:11:37;;;;;;;131.10;74.93;;;;;;;;;;5014161;28;20085;-64
2021/11/14 03:14:05;;;;;;;128.20;74.82;;;;;;;;;;5032946;28;20466;-65
2021/11/14 03:16:32;;;;;;;126.07;74.18;;;;;;;;;;5015151;28;20056;-65
2021/11/14 03:18:58;;;;;;;125.97;73.60;;;;;;;;;;5032951;28;20438;-64
2021/11/14 03:21:25;;;;;;;127.60;74.80;;;;;;;;;;5032923;28;20343;-63
2021/11/14 03:23:51;;;;;;;125.50;71.00;;;;;;;;;;5032909;28;20097;-63
2021/11/14 03:26:18;;;;;;;120.88;70.00;;;;;;;;;;5032890;28;20026;-64
2021/11/14 03:28:45;;;;;;;117.25;69.60;;;;;;;;;;5033134;28;20115;-64
2021/11/14 03:31:11;;;;;;;128.13;72.07;;;;;;;;;;5033044;28;20459;-63
2021/11/14 03:33:38;;;;;;;120.20;70.07;;;;;;;;;;5015029;28;20096;-63
2021/11/14 03:36:08;;;;;;;122.25;69.40;;;;;;;;;;5032641;28;20079;-64
2021/11/14 03:38:45;;;;;;;119.30;67.57;;;;;;;;;;5032752;28;20175;-64
2021/11/14 03:41:13;;;;;;;117.10;68.47;;;;;;;;;;5014884;28;20029;-64
2021/11/14 03:43:40;;;;;;;115.88;66.70;;;;;;;;;;5032703;28;20030;-64
2021/11/14 03:46:06;;;;;;;106.32;61.10;;;;;;;;;;5032652;28;20048;-63
2021/11/14 03:48:33;;;;;;;105.65;61.67;;;;;;;;;;5032361;28;20055;-65
2021/11/14 03:51:00;;;;;;;97.90;58.08;;;;;;;;;;5032569;28;20033;-65
2021/11/14 03:53:26;;;;;;;98.35;53.80;;;;;;;;;;5032654;28;20041;-65
2021/11/14 03:55:53;;;;;;;90.47;53.95;;;;;;;;;;5032645;28;20022;-64
2021/11/14 03:58:20;;;;;;;98.95;57.03;;;;;;;;;;5032181;28;20596;-64
2021/11/14 04:00:52;;;;;;;93.25;56.65;;;;;;;;;;5014585;28;20121;-63
2021/11/14 04:03:18;;;;;;;99.40;58.90;;;;;;;;;;5032825;28;20105;-66
2021/11/14 04:05:45;;;;;;;101.50;60.42;;;;;;;;;;5032497;28;20163;-64
2021/11/14 04:08:15;;;;;;;108.03;62.28;;;;;;;;;;5032523;28;20033;-64
2021/11/14 04:10:42;;;;;;;105.57;61.80;;;;;;;;;;5032290;28;20032;-63
2021/11/14 04:13:09;;;;;;;103.22;62.08;;;;;;;;;;5032463;28;20119;-63
2021/11/14 04:15:36;;;;;;;96.82;56.55;;;;;;;;;;5014323;28;20037;-63
2021/11/14 04:18:05;;;;;;;92.15;54.58;;;;;;;;;;5032324;28;20073;-63
2021/11/14 04:20:33;;;;;;;91.75;55.42;;;;;;;;;;5014590;28;20030;-63
2021/11/14 04:22:59;;;;;;;102.80;58.20;;;;;;;;;;5033483;28;20032;-64
2021/11/14 04:25:27;;;;;;;107.88;60.70;;;;;;;;;;5035849;28;20030;-63
2021/11/14 04:27:53;;;;;;;112.25;63.97;;;;;;;;;;5035828;28;20077;-64
2021/11/14 04:30:19;;;;;;;122.70;68.40;;;;;;;;;;5035774;28;20025;-63
2021/11/14 04:32:46;;;;;;;123.22;67.03;;;;;;;;;;5017634;28;20029;-63
2021/11/14 04:35:13;;;;;;;121.95;68.45;;;;;;;;;;5035657;28;20022;-64
2021/11/14 04:37:39;;;;;;;115.57;64.78;;;;;;;;;;5017791;28;20403;-66
2021/11/14 04:40:09;;;;;;;108.43;61.22;;;;;;;;;;5035622;28;20038;-64
2021/11/14 04:42:36;;;;;;;106.18;59.30;;;;;;;;;;5017681;28;20424;-65
2021/11/14 04:45:05;;;;;;;90.57;57.00;;;;;;;;;;5035517;28;20516;-64
2021/11/14 04:47:31;;;;;;;96.88;54.58;;;;;;;;;;5017693;28;20116;-66
2021/11/14 04:49:58;;;;;;;117.80;72.40;;;;;;;;;;5035113;28;20484;-66
2021/11/14 04:52:24;;;;;;;102.90;60.63;;;;;;;;;;5035337;28;20034;-67
2021/11/14 04:54:50;;;;;;;102.65;63.55;;;;;;;;;;5035309;28;20463;-67
2021/11/14 04:57:16;;;;;;;133.48;77.60;;;;;;;;;;5035150;28;20038;-64
2021/11/14 04:59:43;;;;;;;128.75;74.07;;;;;;;;;;5017518;28;20033;-65
2021/11/14 05:02:09;;;;;;;103.60;61.55;;;;;;;;;;5017411;28;20190;-66
2021/11/14 05:04:35;;;;;;;97.57;60.83;;;;;;;;;;5035166;28;20029;-65
2021/11/14 05:07:01;;;;;;;90.13;55.80;;;;;;;;;;5017371;28;20032;-63
2021/11/14 05:09:27;;;;;;;91.43;57.15;;;;;;;;;;5017267;28;20120;-63
2021/11/14 05:11:54;;;;;;;95.15;58.42;;;;;;;;;;5034592;28;20383;-63
2021/11/14 05:14:20;;;;;;;99.63;58.15;;;;;;;;;;5035039;28;20028;-64
2021/11/14 05:16:46;;;;;;;104.40;60.85;;;;;;;;;;5035057;28;20108;-63
2021/11/14 05:19:13;;;;;;;98.47;58.50;;;;;;;;;;5034635;28;20486;-63
2021/11/14 05:21:39;;;;;;;87.57;55.65;;;;;;;;;;5034807;28;20025;-66
2021/11/14 05:24:08;;;;;;;98.60;55.70;;;;;;;;;;5016954;28;20063;-66
2021/11/14 05:26:35;;;;;;;88.90;52.75;;;;;;;;;;5034713;28;20029;-64
2021/11/14 05:29:01;;;;;;;88.35;50.55;;;;;;;;;;5034972;28;20061;-65
2021/11/14 05:31:28;;;;;;;77.97;46.03;;;;;;;;;;5034630;28;20021;-65
2021/11/14 05:33:54;;;;;;;77.22;46.10;;;;;;;;;;5016384;28;20025;-65
2021/11/14 05:36:23;;;;;;;75.05;45.85;;;;;;;;;;5034231;28;20125;-65
2021/11/14 05:38:49;;;;;;;74.22;42.38;;;;;;;;;;5016715;28;20117;-65
2021/11/14 05:41:15;;;;;;;77.03;43.72;;;;;;;;;;5034486;28;20121;-65
2021/11/14 05:43:42;;;;;;;74.55;44.25;;;;;;;;;;5034175;28;20029;-65
2021/11/14 05:46:14;;;;;;;81.82;43.72;;;;;;;;;;5034606;28;20182;-65
2021/11/14 05:48:50;;;;;;;75.32;41.65;;;;;;;;;;5034103;28;20548;-63
2021/11/14 05:51:16;;;;;;;71.68;43.38;;;;;;;;;;5034305;28;20140;-63
2021/11/14 05:53:42;;;;;;;72.45;45.58;;;;;;;;;;5016496;28;20057;-63
2021/11/14 05:56:09;;;;;;;76.80;47.38;;;;;;;;;;5033909;28;20032;-63
2021/11/14 05:58:44;;;;;;;74.60;45.00;;;;;;;;;;5045750;28;20056;-64
2021/11/14 06:03:42;;;;;;;70.57;42.13;;;;;;;;;;5033836;28;20036;-63
2021/11/14 06:06:08;;;;;;;70.78;43.75;;;;;;;;;;5033949;28;20110;-64
2021/11/14 06:08:35;;;;;;;79.43;47.50;;;;;;;;;;5033807;28;20033;-64
2021/11/14 06:11:01;;;;;;;90.90;51.03;;;;;;;;;;5033660;28;20049;-64
2021/11/14 06:13:28;;;;;;;86.07;49.75;;;;;;;;;;5033627;28;20025;-65
2021/11/14 06:15:55;;;;;;;84.22;50.83;;;;;;;;;;5033655;28;20017;-63
2021/11/14 06:18:22;;;;;;;81.50;48.65;;;;;;;;;;5033671;28;20041;-63
2021/11/14 06:20:48;;;;;;;83.57;49.67;;;;;;;;;;5033219;28;20025;-65
2021/11/14 06:23:15;;;;;;;87.95;50.70;;;;;;;;;;5033548;28;20022;-65
2021/11/14 06:25:41;;;;;;;91.47;50.97;;;;;;;;;;5033840;28;20437;-64
2021/11/14 06:28:08;;;;;;;97.18;52.63;;;;;;;;;;5033485;28;20458;-64
2021/11/14 06:30:35;;;;;;;91.38;53.55;;;;;;;;;;5015694;28;20033;-64
2021/11/14 06:33:01;;;;;;;144.90;71.25;;;;;;;;;;5033492;28;20072;-63
2021/11/14 06:35:28;;;;;;;115.43;61.80;;;;;;;;;;5015566;28;20124;-64
2021/11/14 06:37:54;;;;;;;116.82;62.63;;;;;;;;;;5015546;28;20099;-64
2021/11/14 06:40:22;;;;;;;136.73;74.15;;;;;;;;;;5033290;28;20107;-63
2021/11/14 06:42:49;;;;;;;129.85;73.80;;;;;;;;;;5033287;28;20113;-63
2021/11/14 06:45:15;;;;;;;109.20;64.93;;;;;;;;;;5014915;28;20490;-63
2021/11/14 06:47:41;;;;;;;101.80;58.45;;;;;;;;;;5032985;28;20039;-63
2021/11/14 06:50:08;;;;;;;88.55;52.92;;;;;;;;;;5033145;28;20053;-63
2021/11/14 06:52:34;;;;;;;85.05;52.05;;;;;;;;;;5033157;28;20461;-63
2021/11/14 06:55:00;;;;;;;96.95;51.92;;;;;;;;;;5015371;28;20057;-63
2021/11/14 06:57:27;;;;;;;88.25;50.33;;;;;;;;;;5032922;28;20029;-63
2021/11/14 06:59:53;;;;;;;74.47;45.15;;;;;;;;;;5015301;28;20597;-61
2021/11/14 07:02:19;;;;;;;71.78;42.60;;;;;;;;;;5033322;28;20108;-61
2021/11/14 07:04:45;;;;;;;72.60;41.22;;;;;;;;;;5032799;28;20021;-61
2021/11/14 07:07:11;;;;;;;74.18;43.03;;;;;;;;;;5032935;28;20033;-61
2021/11/14 07:09:38;;;;;;;75.72;43.83;;;;;;;;;;5015139;28;20075;-60
2021/11/14 07:12:04;;;;;;;69.55;41.55;;;;;;;;;;5032434;28;20199;-60
2021/11/14 07:14:31;;;;;;;66.03;39.25;;;;;;;;;;5032953;28;20033;-60
2021/11/14 07:17:01;;;;;;;69.57;39.83;;;;;;;;;;5032490;28;20363;-61
2021/11/14 07:19:27;;;;;;;73.63;40.28;;;;;;;;;;5032993;28;20109;-61
2021/11/14 07:21:54;;;;;;;65.32;38.50;;;;;;;;;;5015155;28;20029;-60
2021/11/14 07:24:20;;;;;;;61.47;37.85;;;;;;;;;;5032840;28;20080;-60
2021/11/14 07:26:47;;;;;;;57.20;35.92;;;;;;;;;;5015274;28;20382;-61
2021/11/14 07:29:13;;;;;;;47.95;32.22;;;;;;;;;;5032529;28;20072;-61
2021/11/14 07:31:40;;;;;;;51.55;31.85;;;;;;;;;;5032631;28;20099;-61
2021/11/14 07:34:06;;;;;;;49.75;30.15;;;;;;;;;;5032682;28;20485;-61
2021/11/14 07:36:32;;;;;;;48.95;30.65;;;;;;;;;;5032384;28;20034;-60
2021/11/14 07:38:59;;;;;;;54.58;30.88;;;;;;;;;;5014932;28;20064;-61
2021/11/14 07:41:25;;;;;;;47.90;31.13;;;;;;;;;;5032570;28;20108;-61
2021/11/14 07:43:51;;;;;;;53.83;32.63;;;;;;;;;;5032584;28;20021;-60
2021/11/14 07:46:17;;;;;;;54.65;33.28;;;;;;;;;;5014826;28;20035;-66
2021/11/14 07:48:44;;;;;;;60.90;35.42;;;;;;;;;;5032522;28;20035;-64
2021/11/14 07:51:10;;;;;;;55.92;33.90;;;;;;;;;;5032299;28;20022;-64
2021/11/14 07:53:36;;;;;;;58.80;34.47;;;;;;;;;;5014675;28;20108;-65
2021/11/14 07:56:03;;;;;;;63.22;36.13;;;;;;;;;;5047785;28;20086;-65
2021/11/14 07:58:30;;;;;;;62.60;35.10;;;;;;;;;;5055716;28;20044;-64
2021/11/14 08:00:56;;;;;;;62.55;35.08;;;;;;;;;;5056490;28;20052;-65
2021/11/14 08:03:25;;;;;;;52.83;31.42;;;;;;;;;;5056198;28;20547;-66
2021/11/14 08:05:51;;;;;;;46.03;29.05;;;;;;;;;;5038357;28;20369;-64
2021/11/14 08:08:18;;;;;;;54.38;31.08;;;;;;;;;;5038265;28;20029;-65
2021/11/14 08:10:44;;;;;;;53.13;31.88;;;;;;;;;;5055869;28;20033;-66
2021/11/14 08:13:10;;;;;;;54.20;31.92;;;;;;;;;;5038200;28;20075;-65
2021/11/14 08:15:37;;;;;;;49.65;29.08;;;;;;;;;;5055962;28;20036;-66
2021/11/14 08:18:04;;;;;;;51.83;30.02;;;;;;;;;;5055848;28;20087;-65
2021/11/14 08:20:33;;;;;;;49.50;30.83;;;;;;;;;;5055988;28;20029;-64
2021/11/14 08:23:00;;;;;;;48.30;30.52;;;;;;;;;;5037869;28;20033;-65
2021/11/14 08:25:27;;;;;;;47.95;29.48;;;;;;;;;;5055697;28;20028;-65
2021/11/14 08:27:54;;;;;;;53.83;31.67;;;;;;;;;;5037500;28;20029;-66
2021/11/14 08:30:20;;;;;;;50.20;30.75;;;;;;;;;;5055983;28;20162;-66
2021/11/14 08:32:47;;;;;;;50.47;31.40;;;;;;;;;;5055664;28;20461;-65
2021/11/14 08:35:14;;;;;;;51.55;31.08;;;;;;;;;;5055635;28;20025;-64
2021/11/14 08:37:40;;;;;;;47.33;30.35;;;;;;;;;;5037362;28;20037;-66
2021/11/14 08:40:08;;;;;;;47.50;27.98;;;;;;;;;;5022239;28;20056;-66
2021/11/14 08:42:35;;;;;;;45.45;29.88;;;;;;;;;;5035192;28;20096;-62
2021/11/14 08:45:01;;;;;;;51.92;30.55;;;;;;;;;;5035592;28;20017;-62
2021/11/14 08:47:27;;;;;;;49.88;30.75;;;;;;;;;;5035439;28;20061;-63
2021/11/14 08:49:53;;;;;;;48.58;30.60;;;;;;;;;;5035262;28;20029;-62
2021/11/14 08:52:19;;;;;;;47.38;29.65;;;;;;;;;;5034036;28;20025;-64
2021/11/14 08:54:46;;;;;;;51.50;30.55;;;;;;;;;;5035224;28;20026;-63
2021/11/14 08:57:17;;;;;;;48.45;29.83;;;;;;;;;;5035203;28;20041;-64
2021/11/14 08:59:43;;;;;;;50.45;31.35;;;;;;;;;;5035215;28;20026;-63
2021/11/14 09:02:10;;;;;;;46.63;29.95;;;;;;;;;;5035150;28;20524;-64
2021/11/14 09:04:36;;;;;;;49.15;31.48;;;;;;;;;;5033634;28;20108;-63
2021/11/14 09:07:02;;;;;;;47.05;31.20;;;;;;;;;;5033497;28;20041;-63
2021/11/14 09:09:29;;;;;;;52.65;31.15;;;;;;;;;;5034174;28;20033;-64
2021/11/14 09:11:55;;;;;;;50.17;32.40;;;;;;;;;;5024512;28;20060;-63
2021/11/14 09:14:22;;;;;;;50.70;31.95;;;;;;;;;;5034632;28;20028;-67
2021/11/14 09:16:52;;;;;;;52.80;31.50;;;;;;;;;;5034656;28;20378;-63
2021/11/14 09:19:18;;;;;;;46.03;30.48;;;;;;;;;;5016931;28;20018;-64
2021/11/14 09:21:45;;;;;;;48.70;31.65;;;;;;;;;;5034755;28;20025;-64
2021/11/14 09:24:12;;;;;;;43.08;28.65;;;;;;;;;;5034643;28;20028;-63
2021/11/14 09:26:39;;;;;;;44.53;29.05;;;;;;;;;;5033761;28;20109;-63
2021/11/14 09:29:05;;;;;;;50.28;30.08;;;;;;;;;;5016935;28;20435;-63
2021/11/14 09:31:33;;;;;;;48.03;29.58;;;;;;;;;;5034395;28;20079;-63
2021/11/14 09:33:59;;;;;;;46.72;28.52;;;;;;;;;;5034472;28;20028;-63
2021/11/14 09:36:30;;;;;;;48.95;32.22;;;;;;;;;;5034493;28;20470;-63
2021/11/14 09:38:57;;;;;;;;;;;;;;;;;;5034798;28;19935;-63
2021/11/14 09:41:24;;;;;;;43.92;27.63;;;;;;;;;;5034237;28;20393;-64
2021/11/14 09:43:50;;;;;;;40.13;25.55;;;;;;;;;;5016530;28;20025;-64
2021/11/14 09:46:16;;;;;;;43.30;27.65;;;;;;;;;;5034385;28;20056;-63
2021/11/14 09:48:43;;;;;;;40.05;25.85;;;;;;;;;;5016477;28;20377;-65
2021/11/14 09:51:09;;;;;;;38.55;24.42;;;;;;;;;;5033785;28;20026;-63
2021/11/14 09:53:36;;;;;;;45.00;27.17;;;;;;;;;;5034059;28;20097;-64
2021/11/14 09:56:04;;;;;;;44.20;26.23;;;;;;;;;;5033977;28;20057;-64
2021/11/14 09:58:30;;;;;;;35.30;24.02;;;;;;;;;;5032309;28;20143;-65
2021/11/14 10:00:57;;;;;;;42.72;24.27;;;;;;;;;;5033357;28;20030;-65
2021/11/14 10:03:23;;;;;;;40.63;24.13;;;;;;;;;;5034109;28;20054;-64
2021/11/14 10:05:50;;;;;;;36.08;22.63;;;13.80;96.30;;;;;;5016076;28;20021;-64
2021/11/14 10:08:23;;;;;;;42.60;24.08;;;14.00;95.30;;;;;;5033641;28;20040;-65
2021/11/14 10:10:56;;;;;;;46.35;28.20;;;14.40;96.10;;;;;;5033596;28;20502;-64
2021/11/14 10:13:34;;;;;;;51.47;29.75;;;14.80;93.40;;;;;;5033756;28;20025;-64
2021/11/14 10:16:16;;;;;;;40.13;24.70;;;14.80;94.10;;;;;;5016000;28;20088;-64
2021/11/14 10:18:56;;;;;;;43.33;25.92;;;14.80;93.30;;;;;;5033617;28;20049;-64
2021/11/14 10:21:23;;;;;;;43.92;23.70;;;15.00;91.70;;;;;;5033462;28;20029;-63
2021/11/14 10:23:50;;;;;;;37.05;22.13;;;;;;;;;;5033516;28;20026;-64
2021/11/14 10:26:16;;;;;;;41.30;23.85;;;15.40;91.10;;;;;;5033412;28;20022;-65
2021/11/14 10:28:47;;;;;;;35.33;21.98;;;16.00;90.10;;;;;;5015767;28;20524;-65
2021/11/14 10:31:16;;;;;;;39.97;23.42;;;;;;;;;;5033455;28;20040;-65
2021/11/14 10:33:42;;;;;;;40.50;23.92;;;16.50;85.30;;;;;;5033392;28;20025;-64
2021/11/14 10:36:08;;;;;;;39.67;25.98;;;17.00;84.20;;;;;;5033253;28;20043;-65
2021/11/14 10:38:38;;;;;;;49.50;29.23;;;17.00;82.00;;;;;;5033164;28;20125;-67
2021/11/14 10:41:07;;;;;;;51.22;31.60;;;16.80;83.70;;;;;;5033314;28;20112;-67
2021/11/14 10:43:39;;;;;;;43.78;26.08;;;16.30;86.60;;;;;;5015484;28;20128;-65
2021/11/14 10:46:14;;;;;;;49.13;32.03;;;16.30;84.70;;;;;;5015449;28;20022;-68
2021/11/14 10:48:40;;;;;;;37.92;22.92;;;;;;;;;;5033508;28;20032;-68
2021/11/14 10:51:11;;;;;;;39.75;25.00;;;16.10;82.20;;;;;;5033206;28;20477;-67
2021/11/14 10:53:38;;;;;;;65.57;38.08;;;15.30;84.30;;;;;;5015399;28;20061;-65
2021/11/14 10:56:09;;;;;;;52.70;32.17;;;15.00;90.10;;;;;;5032001;28;20037;-66
2021/11/14 10:58:35;;;;;;;57.35;34.47;;;14.90;89.30;;;;;;5031080;28;20034;-66
2021/11/14 11:01:08;;;;;;;46.72;31.67;;;14.70;87.20;;;;;;5032535;28;20079;-65
2021/11/14 11:03:48;;;;;;;46.38;29.02;;;;;;;;;;5015162;28;20127;-67
2021/11/14 11:06:27;;;;;;;41.05;25.83;;;14.60;88.50;;;;;;5032526;28;20025;-65
2021/11/14 11:09:03;;;;;;;37.10;21.15;;;;;;;;;;5032119;28;20083;-64
2021/11/14 11:11:29;;;;;;;41.78;25.73;;;14.60;87.40;;;;;;5041415;28;20048;-65
2021/11/14 11:13:55;;;;;;;51.20;30.40;;;14.40;88.40;;;;;;5052925;28;20116;-66
2021/11/14 11:16:24;;;;;;;40.88;25.23;;;14.40;89.30;;;;;;5052884;28;20033;-69
2021/11/14 11:19:05;;;;;;;44.85;25.40;;;14.50;88.10;;;;;;5034769;28;20037;-68
2021/11/14 11:21:35;;;;;;;52.95;33.15;;;14.80;88.40;;;;;;5034962;28;20768;-66
2021/11/14 11:24:07;;;;;;;52.30;35.47;;;14.70;91.30;;;;;;5035178;28;20044;-64
2021/11/14 11:26:33;;;;;;;;;;;14.70;89.00;;;;;;5053206;28;20374;-65
2021/11/14 11:28:59;;;;;;;40.97;27.50;;;14.70;88.90;;;;;;5052704;28;19912;-65
2021/11/14 11:31:25;;;;;;;37.05;22.20;;;14.60;88.90;;;;;;5034527;28;20041;-66
2021/11/14 11:33:55;;;;;;;37.97;23.48;;;14.70;87.00;;;;;;5056548;28;20425;-65
2021/11/14 11:36:23;;;;;;;36.10;23.13;;;14.70;86.70;;;;;;5038433;28;20070;-64
2021/11/14 11:38:49;;;;;;;48.70;32.22;;;14.80;86.40;;;;;;5056441;28;20340;-67
2021/11/14 11:41:16;;;;;;;47.92;31.08;;;14.80;86.20;;;;;;5056782;28;20477;-67
2021/11/14 11:43:43;;;;;;;35.45;24.05;;;14.80;88.90;;;;;;5056503;28;20024;-66
2021/11/14 11:46:12;;;;;;;34.58;21.52;;;14.90;87.00;;;;;;5056505;28;20033;-66
2021/11/14 11:48:45;;;;;;;35.50;22.63;;;14.90;87.40;;;;;;5038454;28;20039;-66
2021/11/14 11:51:17;;;;;;;48.08;27.10;;;14.80;85.70;;;;;;5038483;28;20067;-66
2021/11/14 11:53:55;;;;;;;31.05;21.15;;;14.90;86.50;;;;;;5056073;28;20029;-65
2021/11/14 11:56:21;;;;;;;38.22;24.17;;;15.00;84.80;;;;;;5038295;28;20466;-65
2021/11/14 11:58:53;;;;;;;32.45;22.15;;;14.90;84.90;;;;;;5055874;28;20040;-65
2021/11/14 12:01:26;;;;;;;33.72;22.38;;;15.20;85.20;;;;;;5056281;28;20024;-67
2021/11/14 12:03:54;;;;;;;33.03;21.58;;;15.50;83.90;;;;;;5056209;28;20052;-66
2021/11/14 12:06:23;;;;;;;35.38;22.65;;;15.50;84.20;;;;;;5056473;28;20032;-65
2021/11/14 12:08:53;;;;;;;34.92;23.85;;;15.40;83.20;;;;;;5056111;28;20424;-66
2021/11/14 12:11:45;;;;;;;37.28;22.20;;;15.40;87.10;;;;;;5046246;28;20449;-65
2021/11/14 12:14:20;;;;;;;;;;;15.50;82.40;;;;;;5036513;28;20039;-65
2021/11/14 12:16:59;;;;;;;52.28;34.63;;;15.80;82.40;;;;;;5035982;28;19916;-65
2021/11/14 12:19:26;;;;;;;52.10;30.48;;;15.40;83.00;;;;;;5036039;28;20029;-65
2021/11/14 12:22:06;;;;;;;28.55;20.30;;;15.20;85.80;;;;;;5035915;28;20057;-65
2021/11/14 12:24:48;;;;;;;86.45;56.35;;;15.00;86.60;;;;;;5035979;28;20069;-64
2021/11/14 12:27:27;;;;;;;71.15;42.17;;;14.90;86.70;;;;;;5018198;28;20124;-65
2021/11/14 12:30:13;;;;;;;52.88;34.83;;;14.80;85.40;;;;;;5018031;28;20034;-64
2021/11/14 12:32:43;;;;;;;48.20;32.13;;;14.80;86.30;;;;;;5035770;28;20021;-64
2021/11/14 12:35:17;;;;;;;38.78;25.50;;;14.70;84.80;;;;;;5035469;28;20434;-65
2021/11/14 12:38:06;;;;;;;39.53;24.77;;;14.60;84.50;;;;;;5035667;28;20045;-65
2021/11/14 12:40:34;;;;;;;39.10;25.63;;;14.50;85.00;;;;;;5035637;28;20328;-66
2021/11/14 12:43:22;;;;;;;54.88;34.35;;;14.50;84.70;;;;;;5034949;28;20065;-66
2021/11/14 12:45:51;;;;;;;39.58;23.55;;;14.50;86.10;;;;;;5035543;28;20025;-64
2021/11/14 12:48:21;;;;;;;36.72;22.63;;;14.50;85.40;;;;;;5017587;28;20079;-65
2021/11/14 12:50:48;;;;;;;29.92;19.48;;;14.40;85.70;;;;;;5035635;28;20128;-66
2021/11/14 12:53:20;;;;;;;43.85;29.35;;;14.40;86.60;;;;;;5035654;28;20087;-65
2021/11/14 12:55:46;;;;;;;37.15;24.95;;;14.30;86.40;;;;;;5035328;28;20033;-65
2021/11/14 12:58:17;;;;;;;36.67;23.10;;;14.30;86.30;;;;;;5035306;28;20080;-65
2021/11/14 13:00:45;;;;;;;40.92;23.58;;;14.30;87.40;;;;;;5017523;28;20050;-64
2021/11/14 13:03:30;;;;;;;48.65;29.58;;;14.30;88.40;;;;;;5035070;28;20075;-66
2021/11/14 13:05:59;;;;;;;61.28;38.53;;;14.30;86.90;;;;;;5035176;28;20029;-65
2021/11/14 13:08:45;;;;;;;48.45;30.77;;;14.20;87.40;;;;;;5017332;28;20474;-64
2021/11/14 13:11:26;;;;;;;38.63;24.73;;;14.20;87.70;;;;;;5034487;28;20049;-64
2021/11/14 13:14:08;;;;;;;35.93;20.60;;;14.20;90.70;;;;;;5017296;28;20069;-66
2021/11/14 13:16:34;;;;;;;;;;;14.30;86.80;;;;;;5035452;28;20080;-65
2021/11/14 13:19:03;;;;;;;28.25;16.95;;;14.20;87.70;;;;;;5034682;28;19920;-66
2021/11/14 13:21:30;;;;;;;27.90;18.33;;;14.20;85.50;;;;;;5034829;28;20028;-65
2021/11/14 13:24:01;;;;;;;37.83;20.17;;;14.20;85.30;;;;;;5034820;28;20366;-65
2021/11/14 13:26:33;;;;;;;36.17;22.10;;;14.10;85.20;;;;;;5017092;28;20060;-64
2021/11/14 13:29:02;;;;;;;41.00;26.35;;;14.10;88.20;;;;;;5034797;28;20021;-66
2021/11/14 13:31:28;;;;;;;55.05;30.73;;;14.00;88.90;;;;;;5034374;28;20033;-65
2021/11/14 13:34:13;;;;;;;51.20;28.88;;;14.00;87.60;;;;;;5034630;28;20104;-65
2021/11/14 13:37:01;;;;;;;50.28;27.60;;;14.00;88.70;;;;;;5016412;28;20060;-65
2021/11/14 13:39:50;;;;;;;32.88;20.30;;;13.90;90.00;;;;;;5034480;28;20033;-63
2021/11/14 13:42:31;;;;;;;45.85;26.58;;;14.00;87.40;;;;;;5034448;28;20029;-65
2021/11/14 13:45:00;;;;;;;56.60;32.70;;;14.00;88.60;;;;;;5034479;28;20108;-64
2021/11/14 13:47:39;;;;;;;53.58;30.92;;;14.00;88.80;;;;;;5034135;28;20451;-64
2021/11/14 13:50:11;;;;;;;59.25;30.38;;;14.00;88.40;;;;;;5034334;28;20355;-65
2021/11/14 13:52:37;;;;;;;;;;;13.90;89.70;;;;;;5016792;28;20061;-66
2021/11/14 13:55:09;;;;;;;42.97;25.08;;;13.90;87.70;;;;;;5033818;28;19963;-63